createdAt,value
2018-07-22T00:01:16.706Z,99730.44
2018-07-22T00:06:21.026Z,99736.44
2018-07-22T00:11:25.367Z,99742.15
2018-07-22T00:16:29.222Z,99742.71
2018-07-22T00:21:33.291Z,99740.79
2018-07-22T00:26:37.506Z,99744.23
2018-07-22T00:31:42.668Z,99741.64
2018-07-22T00:36:46.805Z,99741.64
2018-07-22T00:41:52.016Z,99750.00
2018-07-22T00:46:56.428Z,99744.73
2018-07-22T00:52:01.594Z,99748.52
2018-07-22T00:57:05.606Z,99751.73
2018-07-22T01:02:10.672Z,99752.37
2018-07-22T01:07:14.734Z,99753.72
2018-07-22T01:12:19.035Z,99751.23
2018-07-22T01:17:23.233Z,99758.52
2018-07-22T01:22:27.157Z,99755.65
2018-07-22T01:27:32.007Z,99749.71
2018-07-22T01:32:36.000Z,99752.94
2018-07-22T01:37:40.804Z,99751.23
2018-07-22T01:42:45.104Z,99748.64
2018-07-22T01:47:49.314Z,99761.23
2018-07-22T01:52:53.864Z,99762.09
2018-07-22T01:57:58.001Z,99758.02
2018-07-22T02:03:02.522Z,99758.02
2018-07-22T02:08:06.631Z,99755.30
2018-07-22T02:13:10.798Z,99756.66
2018-07-22T02:18:15.655Z,99755.30
2018-07-22T02:23:20.084Z,99762.94
2018-07-22T02:28:25.668Z,99759.72
2018-07-22T02:33:29.917Z,99749.87
2018-07-22T02:38:34.375Z,99750.22
2018-07-22T02:43:38.278Z,99749.71
2018-07-22T02:48:42.218Z,99747.50
2018-07-22T02:53:46.144Z,99752.08
2018-07-22T02:58:50.006Z,99753.31
2018-07-22T03:03:53.830Z,99756.16
2018-07-22T03:08:58.696Z,99754.29
2018-07-22T03:14:02.465Z,99761.02
2018-07-22T03:19:07.261Z,99766.32
2018-07-22T03:24:11.213Z,99767.68
2018-07-22T03:29:15.010Z,99766.58
2018-07-22T03:34:18.791Z,99763.36
2018-07-22T03:39:22.854Z,99766.02
2018-07-22T03:44:26.792Z,99766.73
2018-07-22T03:49:30.719Z,99774.16
2018-07-22T03:54:34.718Z,99770.08
2018-07-22T03:59:38.487Z,99765.83
2018-07-22T04:04:43.213Z,99771.03
2018-07-22T04:09:47.020Z,99766.36
2018-07-22T04:14:50.861Z,99764.31
2018-07-22T04:19:54.711Z,99766.30
2018-07-22T04:24:59.313Z,99772.22
2018-07-22T04:30:10.056Z,99773.23
2018-07-22T04:35:13.962Z,99783.39
2018-07-22T04:40:17.877Z,99790.17
2018-07-22T04:45:21.732Z,99788.08
2018-07-22T04:50:25.558Z,99793.66
2018-07-22T04:55:29.413Z,99789.91
2018-07-22T05:00:33.188Z,99801.38
2018-07-22T05:05:36.939Z,99807.97
2018-07-22T05:10:40.871Z,99804.25
2018-07-22T05:15:45.299Z,99804.91
2018-07-22T05:20:49.560Z,99806.73
2018-07-22T05:25:53.929Z,99800.97
2018-07-22T05:30:57.835Z,99814.52
2018-07-22T05:36:01.893Z,99817.38
2018-07-22T05:41:05.719Z,99817.38
2018-07-22T05:46:09.530Z,99819.09
2018-07-22T05:51:13.439Z,99811.46
2018-07-22T05:56:17.266Z,99817.89
2018-07-22T06:01:21.818Z,99820.60
2018-07-22T06:06:25.764Z,99824.52
2018-07-22T06:11:29.536Z,99827.57
2018-07-22T06:16:33.374Z,99825.59
2018-07-22T06:21:37.261Z,99823.23
2018-07-22T06:26:41.032Z,99827.14
2018-07-22T06:31:45.236Z,99836.13
2018-07-22T06:36:49.001Z,99830.58
2018-07-22T06:41:52.644Z,99834.02
2018-07-22T06:46:56.360Z,99838.95
2018-07-22T06:51:59.976Z,99836.75
2018-07-22T06:57:03.741Z,99838.73
2018-07-22T07:02:07.442Z,99844.29
2018-07-22T07:07:13.998Z,99840.66
2018-07-22T07:12:17.698Z,99840.33
2018-07-22T07:17:21.386Z,99834.77
2018-07-22T07:22:25.192Z,99839.06
2018-07-22T07:27:28.907Z,99847.59
2018-07-22T07:32:32.558Z,99846.16
2018-07-22T07:37:36.239Z,99853.92
2018-07-22T07:42:40.244Z,99854.72
2018-07-22T07:47:43.920Z,99865.99
2018-07-22T07:52:48.019Z,99856.77
2018-07-22T07:57:51.752Z,99857.42
2018-07-22T08:02:55.493Z,99863.00
2018-07-22T08:07:59.128Z,99869.20
2018-07-22T08:13:02.883Z,99876.17
2018-07-22T08:18:06.542Z,99877.73
2018-07-22T08:23:11.108Z,99875.61
2018-07-22T08:28:15.281Z,99871.41
2018-07-22T08:33:18.991Z,99874.99
2018-07-22T08:38:22.794Z,99886.13
2018-07-22T08:43:26.502Z,99887.44
2018-07-22T08:48:30.206Z,99881.78
2018-07-22T08:53:34.000Z,99881.91
2018-07-22T08:58:37.751Z,99893.54
2018-07-22T09:03:41.436Z,99891.89
2018-07-22T09:08:45.125Z,99892.86
2018-07-22T09:13:48.805Z,99898.25
2018-07-22T09:36:53.866Z,99901.69
2018-07-22T09:41:57.707Z,99905.83
2018-07-22T09:47:01.517Z,99906.75
2018-07-22T09:52:05.263Z,99908.87
2018-07-22T09:57:09.627Z,99915.52
2018-07-22T10:02:13.266Z,99915.23
2018-07-22T10:07:16.956Z,99919.92
2018-07-22T10:12:20.781Z,99922.77
2018-07-22T10:17:24.430Z,99922.50
2018-07-22T10:22:28.177Z,99924.69
2018-07-22T10:27:31.794Z,99935.80
2018-07-22T10:32:35.563Z,99937.97
2018-07-22T10:37:39.349Z,99937.17
2018-07-22T10:42:43.150Z,99940.57
2018-07-22T10:47:46.914Z,99937.62
2018-07-22T10:52:50.602Z,99940.52
2018-07-22T10:57:54.456Z,99941.45
2018-07-22T11:02:58.246Z,99931.95
2018-07-22T11:08:02.132Z,99931.13
2018-07-22T11:13:05.880Z,99932.09
2018-07-22T11:18:09.698Z,99925.09
2018-07-22T11:23:13.488Z,99932.16
2018-07-22T11:28:17.254Z,99926.92
2018-07-22T11:33:21.061Z,99929.37
2018-07-22T11:38:24.901Z,99932.28
2018-07-22T11:43:28.726Z,99929.93
2018-07-22T11:48:32.475Z,99930.78
2018-07-22T11:53:36.232Z,99931.29
2018-07-22T11:58:40.099Z,99929.77
2018-07-22T12:03:44.409Z,99936.88
2018-07-22T12:08:48.200Z,99931.53
2018-07-22T12:13:51.904Z,99929.12
2018-07-22T12:18:55.605Z,99928.62
2018-07-22T12:24:07.770Z,99935.05
2018-07-22T12:29:11.576Z,99922.50
2018-07-22T12:34:15.328Z,99924.67
2018-07-22T12:39:19.013Z,99921.03
2018-07-22T12:44:23.689Z,99921.57
2018-07-22T12:49:27.309Z,99921.61
2018-07-22T12:54:31.068Z,99917.20
2018-07-22T12:59:34.997Z,99913.36
2018-07-22T13:04:38.725Z,99907.63
2018-07-22T13:09:42.451Z,99905.70
2018-07-22T13:14:46.236Z,99896.09
2018-07-22T13:19:49.986Z,99894.92
2018-07-22T13:24:53.696Z,99891.20
2018-07-22T13:29:57.396Z,99891.36
2018-07-22T13:35:03.475Z,99891.94
2018-07-22T13:40:08.150Z,99886.52
2018-07-22T13:45:11.879Z,99883.23
2018-07-22T13:50:15.512Z,99884.31
2018-07-22T13:55:19.222Z,99879.67
2018-07-22T14:00:22.933Z,99882.95
2018-07-22T14:05:26.627Z,99876.60
2018-07-22T14:10:30.229Z,99876.53
2018-07-22T14:15:33.920Z,99873.58
2018-07-22T14:20:37.668Z,99872.38
2018-07-22T14:25:41.318Z,99873.66
2018-07-22T14:30:45.284Z,99871.61
2018-07-22T14:35:49.097Z,99869.91
2018-07-22T14:40:52.883Z,99866.45
2018-07-22T14:45:56.708Z,99864.52
2018-07-22T14:51:00.436Z,99865.28
2018-07-22T14:56:04.215Z,99861.13
2018-07-22T15:01:08.053Z,99862.80
2018-07-22T15:06:12.265Z,99866.43
2018-07-22T15:11:24.742Z,99870.03
2018-07-22T15:16:28.440Z,99871.87
2018-07-22T15:21:32.119Z,99869.44
2018-07-22T15:26:36.931Z,99862.82
2018-07-22T15:31:41.538Z,99866.36
2018-07-22T15:36:45.598Z,99866.11
2018-07-22T15:41:51.502Z,99870.91
2018-07-22T15:46:55.154Z,99872.55
2018-07-22T15:51:58.879Z,99869.75
2018-07-22T15:57:02.560Z,99865.36
2018-07-22T16:02:12.996Z,99858.28
2018-07-22T16:07:17.867Z,99867.66
2018-07-22T16:12:21.897Z,99865.63
2018-07-22T16:17:25.733Z,99865.45
2018-07-22T16:22:29.445Z,99871.45
2018-07-22T16:27:33.230Z,99873.31
2018-07-22T16:32:37.091Z,99866.50
2018-07-22T16:37:40.904Z,99863.05
2018-07-22T16:42:44.658Z,99855.07
2018-07-22T16:47:48.492Z,99858.04
2018-07-22T16:52:52.195Z,99860.09
2018-07-22T16:57:55.956Z,99863.66
2018-07-22T17:02:59.770Z,99861.67
2018-07-22T17:08:04.476Z,99860.22
2018-07-22T17:13:08.190Z,99864.13
2018-07-22T17:18:12.087Z,99867.00
2018-07-22T17:23:15.818Z,99871.42
2018-07-22T17:28:20.909Z,99864.09
2018-07-22T17:33:24.916Z,99867.44
2018-07-22T17:38:28.679Z,99877.91
2018-07-22T17:43:33.077Z,99879.86
2018-07-22T17:48:36.786Z,99891.89
2018-07-22T17:53:41.022Z,99896.55
2018-07-22T17:58:45.150Z,99892.67
2018-07-22T18:03:48.992Z,99890.59
2018-07-22T18:08:53.410Z,99886.06
2018-07-22T18:13:57.124Z,99891.63
2018-07-22T18:19:00.743Z,99905.38
2018-07-22T18:24:04.416Z,99906.03
2018-07-22T18:29:08.177Z,99914.95
2018-07-22T18:34:12.059Z,99924.98
2018-07-22T18:39:16.953Z,99922.09
2018-07-22T18:44:20.736Z,99930.44
2018-07-22T18:49:25.124Z,99922.92
2018-07-22T18:54:28.920Z,99923.66
2018-07-22T18:59:33.493Z,99943.22
2018-07-22T19:04:37.397Z,99944.30
2018-07-22T19:09:41.299Z,99943.73
2018-07-22T19:14:45.584Z,99949.97
2018-07-22T19:19:50.427Z,99961.28
2018-07-22T19:24:55.467Z,99947.91
2018-07-22T19:29:59.997Z,99950.56
2018-07-22T19:35:07.787Z,99960.65
2018-07-22T19:40:12.176Z,99965.14
2018-07-22T19:45:16.501Z,99970.66
2018-07-22T19:50:20.953Z,99976.63
2018-07-22T19:55:25.562Z,99977.55
2018-07-22T20:00:29.421Z,99977.63
2018-07-22T20:05:33.009Z,99974.62
2018-07-22T20:10:37.321Z,99976.20
2018-07-22T20:15:41.039Z,99972.21
2018-07-22T20:20:45.096Z,99969.63
2018-07-22T20:25:48.900Z,99973.69
2018-07-22T20:30:52.577Z,99986.47
2018-07-22T20:35:57.187Z,99993.20
2018-07-22T20:41:02.044Z,99998.84
2018-07-22T20:46:05.813Z,100005.96
2018-07-22T20:51:09.618Z,100005.45
2018-07-22T20:56:13.346Z,100007.02
2018-07-22T21:01:17.033Z,100006.95
2018-07-22T21:06:20.659Z,100006.67
2018-07-22T21:11:24.342Z,100017.23
2018-07-22T21:16:28.314Z,100012.82
2018-07-22T21:21:31.928Z,100020.66
2018-07-22T21:26:35.564Z,100020.23
2018-07-22T21:31:39.946Z,100031.50
2018-07-22T21:36:43.638Z,100023.95
2018-07-22T21:41:47.293Z,100024.72
2018-07-22T21:46:51.154Z,100028.88
2018-07-22T21:51:54.827Z,100027.52
2018-07-22T21:56:58.692Z,100035.08
2018-07-22T22:02:03.839Z,100032.67
2018-07-22T22:07:08.706Z,100033.80
2018-07-22T22:12:13.652Z,100029.73
2018-07-22T22:17:19.355Z,100036.20
2018-07-22T22:22:23.329Z,100035.08
2018-07-22T22:27:28.298Z,100035.94
2018-07-22T22:32:32.310Z,100036.29
2018-07-22T22:37:36.291Z,100034.30
2018-07-22T22:42:40.358Z,100040.94
2018-07-22T22:47:44.976Z,100035.66
2018-07-22T22:52:49.968Z,100030.94
2018-07-22T22:58:05.112Z,100030.44
2018-07-22T23:03:09.408Z,100032.30
2018-07-22T23:24:36.977Z,100021.29
2018-07-22T23:29:42.085Z,100016.20
2018-07-22T23:34:46.051Z,100014.50
2018-07-22T23:39:50.325Z,100005.36
2018-07-22T23:44:54.134Z,99999.42
2018-07-22T23:49:58.548Z,100003.49
2018-07-22T23:55:08.073Z,100004.50
